sensor_id;sensor_type;location;lat;lon;timestamp;pressure;altitude;pressure_sealevel;temperature;humidity
80323;BME280;69636;52.372;13.610;2023-08-12T00:02:01;101731.84;;;16.59;89.63
80323;BME280;69636;52.372;13.610;2023-08-12T00:04:28;101728.69;;;16.64;88.89
80323;BME280;69636;52.372;13.610;2023-08-12T00:06:56;101731.53;;;16.62;88.60
80323;BME280;69636;52.372;13.610;2023-08-12T00:09:23;101733.69;;;16.59;89.29
80323;BME280;69636;52.372;13.610;2023-08-12T00:11:51;101734.72;;;16.58;89.70
80323;BME280;69636;52.372;13.610;2023-08-12T00:14:19;101739.41;;;16.56;89.52
80323;BME280;69636;52.372;13.610;2023-08-12T00:16:46;101740.91;;;16.58;89.31
80323;BME280;69636;52.372;13.610;2023-08-12T00:19:15;101742.91;;;16.56;89.15
80323;BME280;69636;52.372;13.610;2023-08-12T00:21:42;101745.75;;;16.55;89.56
80323;BME280;69636;52.372;13.610;2023-08-12T00:24:09;101745.25;;;16.59;89.54
80323;BME280;69636;52.372;13.610;2023-08-12T00:26:37;101746.59;;;16.55;89.41
80323;BME280;69636;52.372;13.610;2023-08-12T00:29:04;101742.06;;;16.48;90.15
80323;BME280;69636;52.372;13.610;2023-08-12T00:31:31;101744.59;;;16.49;90.18
80323;BME280;69636;52.372;13.610;2023-08-12T00:33:59;101738.22;;;16.50;90.23
80323;BME280;69636;52.372;13.610;2023-08-12T00:36:27;101733.34;;;16.38;90.34
80323;BME280;69636;52.372;13.610;2023-08-12T00:38:56;101727.16;;;16.37;90.64
80323;BME280;69636;52.372;13.610;2023-08-12T00:41:23;101725.84;;;16.33;91.41
80323;BME280;69636;52.372;13.610;2023-08-12T00:43:51;101729.53;;;16.32;90.71
80323;BME280;69636;52.372;13.610;2023-08-12T00:46:18;101720.78;;;16.22;91.19
80323;BME280;69636;52.372;13.610;2023-08-12T00:48:45;101723.31;;;16.56;89.39
80323;BME280;69636;52.372;13.610;2023-08-12T00:51:13;101719.63;;;16.57;89.17
80323;BME280;69636;52.372;13.610;2023-08-12T00:53:43;101718.44;;;16.43;89.85
80323;BME280;69636;52.372;13.610;2023-08-12T00:56:13;101710.94;;;16.31;90.61
80323;BME280;69636;52.372;13.610;2023-08-12T00:58:41;101713.91;;;16.19;91.56
80323;BME280;69636;52.372;13.610;2023-08-12T01:01:09;101705.06;;;16.11;91.77
80323;BME280;69636;52.372;13.610;2023-08-12T01:03:36;101702.88;;;16.06;92.67
80323;BME280;69636;52.372;13.610;2023-08-12T01:06:04;101701.72;;;16.09;91.92
80323;BME280;69636;52.372;13.610;2023-08-12T01:08:32;101701.34;;;16.12;91.98
80323;BME280;69636;52.372;13.610;2023-08-12T01:11:07;101700.72;;;16.10;92.37
80323;BME280;69636;52.372;13.610;2023-08-12T01:13:44;101698.88;;;16.10;92.25
80323;BME280;69636;52.372;13.610;2023-08-12T01:16:13;101685.28;;;16.12;92.12
80323;BME280;69636;52.372;13.610;2023-08-12T01:18:42;101686.97;;;16.21;91.58
80323;BME280;69636;52.372;13.610;2023-08-12T01:21:14;101693.66;;;16.17;91.95
80323;BME280;69636;52.372;13.610;2023-08-12T01:23:44;101684.44;;;16.11;92.05
80323;BME280;69636;52.372;13.610;2023-08-12T01:26:12;101681.13;;;16.09;92.17
80323;BME280;69636;52.372;13.610;2023-08-12T01:28:39;101681.94;;;16.26;91.32
80323;BME280;69636;52.372;13.610;2023-08-12T01:31:11;101675.44;;;16.37;90.54
80323;BME280;69636;52.372;13.610;2023-08-12T01:33:42;101681.09;;;16.17;92.04
80323;BME280;69636;52.372;13.610;2023-08-12T01:36:14;101675.94;;;16.08;92.63
80323;BME280;69636;52.372;13.610;2023-08-12T01:38:47;101680.09;;;16.02;92.71
80323;BME280;69636;52.372;13.610;2023-08-12T01:41:16;101679.59;;;15.99;92.95
80323;BME280;69636;52.372;13.610;2023-08-12T01:43:46;101683.78;;;16.01;92.42
80323;BME280;69636;52.372;13.610;2023-08-12T01:46:13;101672.41;;;15.99;92.46
80323;BME280;69636;52.372;13.610;2023-08-12T01:48:40;101679.09;;;15.95;92.49
80323;BME280;69636;52.372;13.610;2023-08-12T01:51:08;101664.19;;;16.01;92.21
80323;BME280;69636;52.372;13.610;2023-08-12T01:53:36;101664.38;;;15.99;92.21
80323;BME280;69636;52.372;13.610;2023-08-12T01:56:06;101667.03;;;16.23;91.09
80323;BME280;69636;52.372;13.610;2023-08-12T01:58:33;101658.69;;;16.02;92.84
80323;BME280;69636;52.372;13.610;2023-08-12T02:01:01;101655.81;;;15.87;93.18
80323;BME280;69636;52.372;13.610;2023-08-12T02:03:28;101658.66;;;15.78;92.91
80323;BME280;69636;52.372;13.610;2023-08-12T02:05:56;101651.31;;;15.80;92.93
80323;BME280;69636;52.372;13.610;2023-08-12T02:08:23;101650.94;;;15.75;93.34
80323;BME280;69636;52.372;13.610;2023-08-12T02:10:51;101647.94;;;15.86;92.83
80323;BME280;69636;52.372;13.610;2023-08-12T02:13:20;101647.47;;;15.82;93.13
80323;BME280;69636;52.372;13.610;2023-08-12T02:15:47;101646.09;;;15.70;93.68
80323;BME280;69636;52.372;13.610;2023-08-12T02:18:14;101649.94;;;15.68;93.95
80323;BME280;69636;52.372;13.610;2023-08-12T02:20:43;101650.25;;;15.65;93.98
80323;BME280;69636;52.372;13.610;2023-08-12T02:23:11;101639.59;;;15.81;92.93
80323;BME280;69636;52.372;13.610;2023-08-12T02:25:39;101635.22;;;15.72;93.46
80323;BME280;69636;52.372;13.610;2023-08-12T02:28:06;101623.00;;;15.77;93.04
80323;BME280;69636;52.372;13.610;2023-08-12T02:30:38;101624.16;;;15.67;93.82
80323;BME280;69636;52.372;13.610;2023-08-12T02:33:08;101624.16;;;15.58;94.52
80323;BME280;69636;52.372;13.610;2023-08-12T02:35:35;101620.28;;;15.61;94.15
80323;BME280;69636;52.372;13.610;2023-08-12T02:38:03;101616.78;;;15.60;94.53
80323;BME280;69636;52.372;13.610;2023-08-12T02:40:30;101624.81;;;15.60;94.00
80323;BME280;69636;52.372;13.610;2023-08-12T02:42:57;101617.63;;;15.61;94.00
80323;BME280;69636;52.372;13.610;2023-08-12T02:45:24;101621.81;;;15.64;94.09
80323;BME280;69636;52.372;13.610;2023-08-12T02:47:53;101610.97;;;15.73;93.37
80323;BME280;69636;52.372;13.610;2023-08-12T02:50:21;101615.47;;;15.73;93.10
80323;BME280;69636;52.372;13.610;2023-08-12T02:52:48;101609.09;;;15.66;93.10
80323;BME280;69636;52.372;13.610;2023-08-12T02:55:16;101608.78;;;15.69;93.98
80323;BME280;69636;52.372;13.610;2023-08-12T02:57:43;101597.75;;;15.72;93.55
80323;BME280;69636;52.372;13.610;2023-08-12T03:00:12;101606.44;;;15.74;93.31
80323;BME280;69636;52.372;13.610;2023-08-12T03:02:42;101601.41;;;15.71;93.47
80323;BME280;69636;52.372;13.610;2023-08-12T03:05:11;101595.56;;;15.75;93.24
80323;BME280;69636;52.372;13.610;2023-08-12T03:07:38;101599.09;;;15.76;93.38
80323;BME280;69636;52.372;13.610;2023-08-12T03:10:07;101597.41;;;15.75;93.60
80323;BME280;69636;52.372;13.610;2023-08-12T03:12:36;101599.91;;;15.76;92.93
80323;BME280;69636;52.372;13.610;2023-08-12T03:15:06;101594.41;;;15.78;92.12
80323;BME280;69636;52.372;13.610;2023-08-12T03:17:33;101596.25;;;15.77;92.40
80323;BME280;69636;52.372;13.610;2023-08-12T03:20:01;101596.41;;;15.76;92.20
80323;BME280;69636;52.372;13.610;2023-08-12T03:22:32;101592.06;;;15.75;92.15
80323;BME280;69636;52.372;13.610;2023-08-12T03:24:59;101596.91;;;15.79;92.32
80323;BME280;69636;52.372;13.610;2023-08-12T03:27:26;101589.88;;;15.78;92.04
80323;BME280;69636;52.372;13.610;2023-08-12T03:29:53;101590.88;;;15.77;92.15
80323;BME280;69636;52.372;13.610;2023-08-12T03:32:21;101592.56;;;15.78;91.84
80323;BME280;69636;52.372;13.610;2023-08-12T03:34:48;101584.69;;;15.77;92.46
80323;BME280;69636;52.372;13.610;2023-08-12T03:37:16;101593.41;;;15.79;91.90
80323;BME280;69636;52.372;13.610;2023-08-12T03:39:47;101587.22;;;15.78;91.79
80323;BME280;69636;52.372;13.610;2023-08-12T03:42:15;101585.88;;;15.74;92.22
80323;BME280;69636;52.372;13.610;2023-08-12T03:44:42;101577.00;;;15.74;92.67
80323;BME280;69636;52.372;13.610;2023-08-12T03:47:10;101583.03;;;15.76;91.86
80323;BME280;69636;52.372;13.610;2023-08-12T03:49:38;101577.00;;;15.74;91.82
80323;BME280;69636;52.372;13.610;2023-08-12T03:52:05;101573.81;;;15.78;91.70
80323;BME280;69636;52.372;13.610;2023-08-12T03:54:33;101564.44;;;15.74;92.17
80323;BME280;69636;52.372;13.610;2023-08-12T03:57:03;101569.28;;;15.71;91.97
80323;BME280;69636;52.372;13.610;2023-08-12T03:59:31;101564.28;;;15.68;92.17
80323;BME280;69636;52.372;13.610;2023-08-12T04:01:58;101565.78;;;15.70;91.97
80323;BME280;69636;52.372;13.610;2023-08-12T04:04:25;101573.13;;;15.68;91.71
80323;BME280;69636;52.372;13.610;2023-08-12T04:06:53;101562.28;;;15.70;91.91
80323;BME280;69636;52.372;13.610;2023-08-12T04:09:20;101564.28;;;15.68;92.00
80323;BME280;69636;52.372;13.610;2023-08-12T04:11:47;101563.94;;;15.71;91.49
80323;BME280;69636;52.372;13.610;2023-08-12T04:14:16;101560.94;;;15.74;91.94
80323;BME280;69636;52.372;13.610;2023-08-12T04:16:43;101562.44;;;15.76;90.94
80323;BME280;69636;52.372;13.610;2023-08-12T04:19:11;101564.63;;;15.73;90.83
80323;BME280;69636;52.372;13.610;2023-08-12T04:21:38;101555.25;;;15.77;90.95
80323;BME280;69636;52.372;13.610;2023-08-12T04:24:08;101550.56;;;15.79;90.85
80323;BME280;69636;52.372;13.610;2023-08-12T04:26:36;101552.91;;;15.82;90.77
80323;BME280;69636;52.372;13.610;2023-08-12T04:29:04;101549.22;;;15.83;90.63
80323;BME280;69636;52.372;13.610;2023-08-12T04:31:33;101541.66;;;15.86;90.38
80323;BME280;69636;52.372;13.610;2023-08-12T04:34:02;101543.69;;;15.92;90.11
80323;BME280;69636;52.372;13.610;2023-08-12T04:36:29;101543.19;;;15.97;89.57
80323;BME280;69636;52.372;13.610;2023-08-12T04:38:57;101544.84;;;16.06;88.95
80323;BME280;69636;52.372;13.610;2023-08-12T04:41:24;101548.50;;;16.13;88.87
80323;BME280;69636;52.372;13.610;2023-08-12T04:43:51;101543.81;;;16.15;88.10
80323;BME280;69636;52.372;13.610;2023-08-12T04:46:19;101551.19;;;16.21;87.75
80323;BME280;69636;52.372;13.610;2023-08-12T04:48:48;101559.69;;;16.33;87.61
80323;BME280;69636;52.372;13.610;2023-08-12T04:51:15;101558.31;;;16.45;86.70
80323;BME280;69636;52.372;13.610;2023-08-12T04:53:42;101546.56;;;16.62;85.95
80323;BME280;69636;52.372;13.610;2023-08-12T04:56:10;101552.41;;;16.66;85.88
80323;BME280;69636;52.372;13.610;2023-08-12T04:58:37;101545.69;;;16.70;86.23
80323;BME280;69636;52.372;13.610;2023-08-12T05:01:09;101543.66;;;16.80;85.26
80323;BME280;69636;52.372;13.610;2023-08-12T05:03:37;101548.09;;;16.96;85.12
80323;BME280;69636;52.372;13.610;2023-08-12T05:06:06;101552.22;;;17.07;84.71
80323;BME280;69636;52.372;13.610;2023-08-12T05:08:33;101543.75;;;17.18;84.45
80323;BME280;69636;52.372;13.610;2023-08-12T05:11:00;101544.69;;;17.33;83.75
80323;BME280;69636;52.372;13.610;2023-08-12T05:13:28;101545.56;;;17.48;83.86
80323;BME280;69636;52.372;13.610;2023-08-12T05:15:55;101538.28;;;17.57;82.93
80323;BME280;69636;52.372;13.610;2023-08-12T05:18:23;101553.16;;;17.68;83.04
80323;BME280;69636;52.372;13.610;2023-08-12T05:20:51;101550.72;;;17.81;83.50
80323;BME280;69636;52.372;13.610;2023-08-12T05:23:21;101532.22;;;17.86;81.90
80323;BME280;69636;52.372;13.610;2023-08-12T05:25:48;101532.88;;;17.88;82.35
80323;BME280;69636;52.372;13.610;2023-08-12T05:28:17;101540.44;;;17.84;82.04
80323;BME280;69636;52.372;13.610;2023-08-12T05:30:44;101539.63;;;17.84;82.11
80323;BME280;69636;52.372;13.610;2023-08-12T05:33:12;101537.13;;;17.97;80.81
80323;BME280;69636;52.372;13.610;2023-08-12T05:35:39;101534.66;;;18.10;80.77
80323;BME280;69636;52.372;13.610;2023-08-12T05:38:06;101536.97;;;18.13;80.28
80323;BME280;69636;52.372;13.610;2023-08-12T05:40:36;101539.56;;;18.21;80.39
80323;BME280;69636;52.372;13.610;2023-08-12T05:43:04;101532.19;;;18.38;80.20
80323;BME280;69636;52.372;13.610;2023-08-12T05:45:32;101538.19;;;18.55;79.87
80323;BME280;69636;52.372;13.610;2023-08-12T05:48:00;101533.56;;;18.78;78.98
80323;BME280;69636;52.372;13.610;2023-08-12T05:50:27;101524.66;;;19.14;77.81
80323;BME280;69636;52.372;13.610;2023-08-12T05:52:54;101527.03;;;19.23;77.03
80323;BME280;69636;52.372;13.610;2023-08-12T05:55:22;101527.25;;;19.43;76.75
80323;BME280;69636;52.372;13.610;2023-08-12T05:57:52;101521.06;;;19.49;73.83
80323;BME280;69636;52.372;13.610;2023-08-12T06:00:20;101518.84;;;19.74;72.70
80323;BME280;69636;52.372;13.610;2023-08-12T06:02:47;101523.41;;;19.74;73.28
80323;BME280;69636;52.372;13.610;2023-08-12T06:05:18;101525.66;;;19.70;72.94
80323;BME280;69636;52.372;13.610;2023-08-12T06:07:45;101528.53;;;19.69;73.14
80323;BME280;69636;52.372;13.610;2023-08-12T06:10:15;101526.84;;;19.89;72.69
80323;BME280;69636;52.372;13.610;2023-08-12T06:12:43;101524.66;;;19.78;72.98
80323;BME280;69636;52.372;13.610;2023-08-12T06:15:11;101522.59;;;19.80;73.57
80323;BME280;69636;52.372;13.610;2023-08-12T06:17:39;101525.31;;;19.80;73.67
80323;BME280;69636;52.372;13.610;2023-08-12T06:20:08;101529.28;;;19.84;74.32
80323;BME280;69636;52.372;13.610;2023-08-12T06:22:36;101520.28;;;19.98;73.88
80323;BME280;69636;52.372;13.610;2023-08-12T06:25:04;101519.06;;;20.01;74.33
80323;BME280;69636;52.372;13.610;2023-08-12T06:27:32;101508.31;;;20.07;73.55
80323;BME280;69636;52.372;13.610;2023-08-12T06:29:59;101508.84;;;20.30;73.94
80323;BME280;69636;52.372;13.610;2023-08-12T06:32:28;101497.41;;;20.50;72.89
80323;BME280;69636;52.372;13.610;2023-08-12T06:34:57;101510.13;;;20.69;70.28
80323;BME280;69636;52.372;13.610;2023-08-12T06:37:24;101513.72;;;20.89;70.63
80323;BME280;69636;52.372;13.610;2023-08-12T06:39:52;101504.22;;;21.07;69.63
80323;BME280;69636;52.372;13.610;2023-08-12T06:42:19;101505.56;;;21.30;69.83
80323;BME280;69636;52.372;13.610;2023-08-12T06:44:59;101503.09;;;21.55;70.80
80323;BME280;69636;52.372;13.610;2023-08-12T06:47:27;101503.47;;;21.85;67.30
80323;BME280;69636;52.372;13.610;2023-08-12T06:49:55;101499.94;;;22.11;66.59
80323;BME280;69636;52.372;13.610;2023-08-12T06:52:25;101496.63;;;21.96;66.87
80323;BME280;69636;52.372;13.610;2023-08-12T06:54:54;101503.31;;;21.80;66.80
80323;BME280;69636;52.372;13.610;2023-08-12T06:57:22;101512.66;;;21.78;68.05
80323;BME280;69636;52.372;13.610;2023-08-12T06:59:49;101500.97;;;21.97;67.30
80323;BME280;69636;52.372;13.610;2023-08-12T07:02:17;101503.50;;;21.79;66.71
80323;BME280;69636;52.372;13.610;2023-08-12T07:04:46;101507.22;;;21.64;67.69
80323;BME280;69636;52.372;13.610;2023-08-12T07:07:13;101502.66;;;21.98;66.16
80323;BME280;69636;52.372;13.610;2023-08-12T07:09:40;101501.81;;;21.91;66.23
80323;BME280;69636;52.372;13.610;2023-08-12T07:12:08;101505.38;;;21.72;65.97
80323;BME280;69636;52.372;13.610;2023-08-12T07:14:35;101505.56;;;21.63;67.34
80323;BME280;69636;52.372;13.610;2023-08-12T07:17:03;101502.25;;;21.61;68.22
80323;BME280;69636;52.372;13.610;2023-08-12T07:19:30;101490.63;;;21.81;66.73
80323;BME280;69636;52.372;13.610;2023-08-12T07:21:59;101499.56;;;21.75;67.39
80323;BME280;69636;52.372;13.610;2023-08-12T07:24:27;101498.94;;;21.66;68.18
80323;BME280;69636;52.372;13.610;2023-08-12T07:26:55;101499.78;;;21.53;68.24
80323;BME280;69636;52.372;13.610;2023-08-12T07:29:22;101506.00;;;21.67;68.42
80323;BME280;69636;52.372;13.610;2023-08-12T07:31:51;101496.00;;;21.67;67.35
80323;BME280;69636;52.372;13.610;2023-08-12T07:34:19;101494.78;;;21.77;68.08
80323;BME280;69636;52.372;13.610;2023-08-12T07:36:46;101491.44;;;21.81;67.48
80323;BME280;69636;52.372;13.610;2023-08-12T07:39:15;101494.75;;;21.83;68.76
80323;BME280;69636;52.372;13.610;2023-08-12T07:41:42;101484.75;;;21.84;67.18
80323;BME280;69636;52.372;13.610;2023-08-12T07:44:10;101492.25;;;22.15;67.25
80323;BME280;69636;52.372;13.610;2023-08-12T07:46:39;101490.97;;;22.30;66.61
80323;BME280;69636;52.372;13.610;2023-08-12T07:49:07;101480.78;;;22.77;64.07
80323;BME280;69636;52.372;13.610;2023-08-12T07:51:34;101485.25;;;23.03;64.15
80323;BME280;69636;52.372;13.610;2023-08-12T07:54:02;101488.59;;;22.98;64.02
80323;BME280;69636;52.372;13.610;2023-08-12T07:56:30;101493.16;;;23.05;64.68
80323;BME280;69636;52.372;13.610;2023-08-12T07:58:58;101491.69;;;23.09;64.12
80323;BME280;69636;52.372;13.610;2023-08-12T08:01:25;101486.34;;;22.95;63.79
80323;BME280;69636;52.372;13.610;2023-08-12T08:03:52;101479.44;;;22.99;63.68
80323;BME280;69636;52.372;13.610;2023-08-12T08:06:20;101473.72;;;23.14;62.88
80323;BME280;69636;52.372;13.610;2023-08-12T08:08:47;101470.09;;;23.27;62.97
80323;BME280;69636;52.372;13.610;2023-08-12T08:11:14;101476.41;;;23.46;62.79
80323;BME280;69636;52.372;13.610;2023-08-12T08:13:43;101474.28;;;23.54;62.34
80323;BME280;69636;52.372;13.610;2023-08-12T08:16:10;101475.22;;;23.66;62.19
80323;BME280;69636;52.372;13.610;2023-08-12T08:18:38;101474.44;;;23.84;61.98
80323;BME280;69636;52.372;13.610;2023-08-12T08:21:05;101475.94;;;23.80;63.91
80323;BME280;69636;52.372;13.610;2023-08-12T08:23:33;101474.22;;;23.86;62.28
80323;BME280;69636;52.372;13.610;2023-08-12T08:26:00;101471.84;;;24.14;62.19
80323;BME280;69636;52.372;13.610;2023-08-12T08:28:27;101469.84;;;24.21;61.37
80323;BME280;69636;52.372;13.610;2023-08-12T08:30:56;101474.56;;;24.14;62.49
80323;BME280;69636;52.372;13.610;2023-08-12T08:33:26;101472.56;;;23.85;61.96
80323;BME280;69636;52.372;13.610;2023-08-12T08:35:53;101465.19;;;24.10;61.74
80323;BME280;69636;52.372;13.610;2023-08-12T08:38:22;101461.19;;;23.94;61.77
80323;BME280;69636;52.372;13.610;2023-08-12T08:40:50;101468.47;;;23.76;62.17
80323;BME280;69636;52.372;13.610;2023-08-12T08:43:20;101469.50;;;23.75;63.43
80323;BME280;69636;52.372;13.610;2023-08-12T08:45:50;101480.09;;;23.83;64.57
80323;BME280;69636;52.372;13.610;2023-08-12T08:48:20;101473.47;;;23.47;64.82
80323;BME280;69636;52.372;13.610;2023-08-12T08:50:48;101472.53;;;23.35;65.88
80323;BME280;69636;52.372;13.610;2023-08-12T08:53:16;101474.28;;;23.23;65.42
80323;BME280;69636;52.372;13.610;2023-08-12T08:55:45;101476.38;;;23.21;65.93
80323;BME280;69636;52.372;13.610;2023-08-12T08:58:13;101465.97;;;23.18;65.94
80323;BME280;69636;52.372;13.610;2023-08-12T09:00:47;101475.25;;;23.04;67.43
80323;BME280;69636;52.372;13.610;2023-08-12T09:03:15;101476.97;;;22.91;67.47
80323;BME280;69636;52.372;13.610;2023-08-12T09:05:44;101468.50;;;22.81;68.62
80323;BME280;69636;52.372;13.610;2023-08-12T09:08:12;101473.81;;;23.01;67.91
80323;BME280;69636;52.372;13.610;2023-08-12T09:10:39;101477.25;;;23.15;68.62
80323;BME280;69636;52.372;13.610;2023-08-12T09:13:07;101473.38;;;23.35;66.70
80323;BME280;69636;52.372;13.610;2023-08-12T09:15:34;101474.16;;;23.67;64.20
80323;BME280;69636;52.372;13.610;2023-08-12T09:18:04;101471.63;;;23.91;64.79
80323;BME280;69636;52.372;13.610;2023-08-12T09:20:32;101482.34;;;24.29;65.55
80323;BME280;69636;52.372;13.610;2023-08-12T09:23:01;101480.59;;;24.34;63.55
80323;BME280;69636;52.372;13.610;2023-08-12T09:25:29;101471.97;;;25.04;62.42
80323;BME280;69636;52.372;13.610;2023-08-12T09:27:59;101472.34;;;26.19;58.62
80323;BME280;69636;52.372;13.610;2023-08-12T09:30:28;101463.59;;;26.69;55.72
80323;BME280;69636;52.372;13.610;2023-08-12T09:32:59;101475.75;;;26.78;57.28
80323;BME280;69636;52.372;13.610;2023-08-12T09:35:32;101467.88;;;27.38;52.77
80323;BME280;69636;52.372;13.610;2023-08-12T09:38:10;101458.63;;;28.12;52.05
80323;BME280;69636;52.372;13.610;2023-08-12T09:40:38;101459.72;;;28.32;50.87
80323;BME280;69636;52.372;13.610;2023-08-12T09:43:05;101461.19;;;28.62;50.56
80323;BME280;69636;52.372;13.610;2023-08-12T09:45:34;101454.00;;;28.34;50.12
80323;BME280;69636;52.372;13.610;2023-08-12T09:48:01;101455.66;;;28.35;51.34
80323;BME280;69636;52.372;13.610;2023-08-12T09:50:29;101458.13;;;28.15;51.05
80323;BME280;69636;52.372;13.610;2023-08-12T09:52:56;101449.22;;;28.68;51.17
80323;BME280;69636;52.372;13.610;2023-08-12T09:55:25;101449.69;;;29.09;49.46
80323;BME280;69636;52.372;13.610;2023-08-12T09:57:54;101449.91;;;28.80;49.71
80323;BME280;69636;52.372;13.610;2023-08-12T10:00:22;101450.75;;;28.59;49.75
80323;BME280;69636;52.372;13.610;2023-08-12T10:02:52;101444.19;;;28.55;50.66
80323;BME280;69636;52.372;13.610;2023-08-12T10:05:22;101443.69;;;28.63;50.58
80323;BME280;69636;52.372;13.610;2023-08-12T10:07:51;101445.66;;;28.89;49.18
80323;BME280;69636;52.372;13.610;2023-08-12T10:10:20;101445.34;;;28.86;49.83
80323;BME280;69636;52.372;13.610;2023-08-12T10:12:49;101431.41;;;28.87;50.04
80323;BME280;69636;52.372;13.610;2023-08-12T10:15:17;101433.34;;;28.65;50.59
80323;BME280;69636;52.372;13.610;2023-08-12T10:17:46;101429.63;;;28.49;51.82
80323;BME280;69636;52.372;13.610;2023-08-12T10:20:21;101432.50;;;28.37;51.71
80323;BME280;69636;52.372;13.610;2023-08-12T10:22:48;101428.75;;;28.22;52.77
80323;BME280;69636;52.372;13.610;2023-08-12T10:25:18;101428.78;;;28.05;53.37
80323;BME280;69636;52.372;13.610;2023-08-12T10:27:45;101424.00;;;27.74;55.32
80323;BME280;69636;52.372;13.610;2023-08-12T10:30:14;101430.03;;;27.42;54.97
80323;BME280;69636;52.372;13.610;2023-08-12T10:32:41;101422.03;;;26.90;56.23
80323;BME280;69636;52.372;13.610;2023-08-12T10:35:09;101425.81;;;26.73;56.99
80323;BME280;69636;52.372;13.610;2023-08-12T10:37:37;101420.41;;;26.61;58.57
80323;BME280;69636;52.372;13.610;2023-08-12T10:40:06;101409.75;;;26.59;57.82
80323;BME280;69636;52.372;13.610;2023-08-12T10:42:40;101406.28;;;26.64;59.96
80323;BME280;69636;52.372;13.610;2023-08-12T10:45:08;101397.25;;;26.75;59.80
80323;BME280;69636;52.372;13.610;2023-08-12T10:47:47;101389.38;;;26.62;59.90
80323;BME280;69636;52.372;13.610;2023-08-12T10:50:18;101380.63;;;26.31;58.72
80323;BME280;69636;52.372;13.610;2023-08-12T10:52:51;101387.75;;;26.21;60.03
80323;BME280;69636;52.372;13.610;2023-08-12T10:55:24;101399.91;;;26.30;59.74
80323;BME280;69636;52.372;13.610;2023-08-12T10:57:53;101395.28;;;26.30;60.91
80323;BME280;69636;52.372;13.610;2023-08-12T11:00:23;101399.28;;;26.40;60.27
80323;BME280;69636;52.372;13.610;2023-08-12T11:02:53;101404.75;;;26.40;59.92
80323;BME280;69636;52.372;13.610;2023-08-12T11:05:22;101400.16;;;26.57;59.75
80323;BME280;69636;52.372;13.610;2023-08-12T11:10:22;101405.81;;;26.67;58.70
80323;BME280;69636;52.372;13.610;2023-08-12T11:12:55;101403.00;;;26.62;58.44
80323;BME280;69636;52.372;13.610;2023-08-12T11:15:32;101396.28;;;26.53;58.82
80323;BME280;69636;52.372;13.610;2023-08-12T11:18:03;101400.59;;;26.25;60.32
80323;BME280;69636;52.372;13.610;2023-08-12T11:20:31;101398.38;;;26.22;60.55
80323;BME280;69636;52.372;13.610;2023-08-12T11:22:59;101400.31;;;26.10;60.85
80323;BME280;69636;52.372;13.610;2023-08-12T11:25:28;101380.47;;;25.98;62.11
80323;BME280;69636;52.372;13.610;2023-08-12T11:27:56;101387.06;;;26.02;62.15
80323;BME280;69636;52.372;13.610;2023-08-12T11:30:25;101384.44;;;26.07;61.64
80323;BME280;69636;52.372;13.610;2023-08-12T11:32:54;101386.69;;;26.10;61.49
80323;BME280;69636;52.372;13.610;2023-08-12T11:35:25;101399.84;;;26.01;63.73
80323;BME280;69636;52.372;13.610;2023-08-12T11:37:55;101397.03;;;25.85;64.43
80323;BME280;69636;52.372;13.610;2023-08-12T11:40:23;101399.63;;;25.80;62.75
80323;BME280;69636;52.372;13.610;2023-08-12T11:42:51;101391.00;;;25.83;61.71
80323;BME280;69636;52.372;13.610;2023-08-12T11:45:22;101398.22;;;25.77;63.82
80323;BME280;69636;52.372;13.610;2023-08-12T11:47:50;101386.16;;;25.61;64.63
80323;BME280;69636;52.372;13.610;2023-08-12T11:50:18;101390.53;;;25.39;66.77
80323;BME280;69636;52.372;13.610;2023-08-12T11:52:48;101398.75;;;25.21;70.64
80323;BME280;69636;52.372;13.610;2023-08-12T11:55:16;101399.41;;;24.93;71.13
80323;BME280;69636;52.372;13.610;2023-08-12T11:57:44;101402.56;;;24.78;73.30
80323;BME280;69636;52.372;13.610;2023-08-12T12:00:12;101412.81;;;24.76;74.07
80323;BME280;69636;52.372;13.610;2023-08-12T12:02:46;101409.09;;;24.59;76.59
80323;BME280;69636;52.372;13.610;2023-08-12T12:05:14;101400.06;;;24.47;74.97
80323;BME280;69636;52.372;13.610;2023-08-12T12:07:42;101399.00;;;24.48;74.03
80323;BME280;69636;52.372;13.610;2023-08-12T12:10:13;101393.56;;;24.66;74.03
80323;BME280;69636;52.372;13.610;2023-08-12T12:12:41;101388.75;;;24.80;73.08
80323;BME280;69636;52.372;13.610;2023-08-12T12:15:08;101388.00;;;25.02;71.45
80323;BME280;69636;52.372;13.610;2023-08-12T12:17:38;101381.38;;;24.98;71.22
80323;BME280;69636;52.372;13.610;2023-08-12T12:20:08;101389.34;;;24.82;71.30
80323;BME280;69636;52.372;13.610;2023-08-12T12:22:37;101392.34;;;24.92;69.67
80323;BME280;69636;52.372;13.610;2023-08-12T12:25:07;101397.06;;;24.96;70.71
80323;BME280;69636;52.372;13.610;2023-08-12T12:27:36;101395.41;;;24.95;70.00
80323;BME280;69636;52.372;13.610;2023-08-12T12:30:07;101388.91;;;24.96;68.59
80323;BME280;69636;52.372;13.610;2023-08-12T12:32:35;101388.00;;;24.73;69.27
80323;BME280;69636;52.372;13.610;2023-08-12T12:35:02;101391.53;;;24.73;70.48
80323;BME280;69636;52.372;13.610;2023-08-12T12:37:30;101382.13;;;24.76;70.56
80323;BME280;69636;52.372;13.610;2023-08-12T12:39:57;101372.81;;;24.83;69.61
80323;BME280;69636;52.372;13.610;2023-08-12T12:42:25;101383.75;;;24.65;72.44
80323;BME280;69636;52.372;13.610;2023-08-12T12:44:53;101368.25;;;24.54;69.96
80323;BME280;69636;52.372;13.610;2023-08-12T12:47:21;101361.69;;;24.43;70.11
80323;BME280;69636;52.372;13.610;2023-08-12T12:49:48;101346.72;;;24.41;70.01